CheckWX is a tool to help pilots better visualize weather data.  It is not intended as a substitute for an official pre-flight weather briefing.

07:29:09 UTC

KLOT METAR
Lewis University Airport
Chicago/Romeoville, Illinois, USA
Current

34 mins ago

KLOT 290655Z AUTO 01011G16KT 10SM OVC043 16/14 A2990 RMK AO2 LTG DSNT E T01610135
Observed
May-29 @ 06:55 UTC
Wind
  • 010° at 11 KTS
  • Gusting to 16 KTS
Visibility
Flight Rules
VFR
Cloud Levels
  • Overcast at 4,300' AGL
Temperature
16°C / 61°F
Dewpoint
14°C / 57°F
Humidity
88%
Altimeter
29.9" Hg
Pressure
1012.52 hPa
Previous

54 mins ago

KLOT 290635Z AUTO 35014G22KT 10SM OVC043 16/14 A2990 RMK AO2 LTG DSNT E T01610138
Observed
May-29 @ 06:35 UTC
Wind
  • 350° at 14 KTS
  • Gusting to 22 KTS
Visibility
Flight Rules
VFR
Cloud Levels
  • Overcast at 4,300' AGL
Temperature
16°C / 61°F
Dewpoint
14°C / 57°F
Humidity
88%
Altimeter
29.9" Hg
Pressure
1012.52 hPa
Previous

1 hour ago

KLOT 290615Z AUTO 36018G24KT 10SM SCT037 OVC045 17/15 A2988 RMK AO2 T01650145
Observed
May-29 @ 06:15 UTC
Wind
  • 360° at 18 KTS
  • Gusting to 24 KTS
Visibility
Flight Rules
VFR
Cloud Levels
  • Scattered at 3,700' AGL
  • Overcast at 4,500' AGL
Temperature
16°C / 61°F
Dewpoint
14°C / 57°F
Humidity
88%
Altimeter
29.88" Hg
Pressure
1011.82 hPa